sensor_id;sensor_type;location;lat;lon;timestamp;P1;durP1;ratioP1;P2;durP2;ratioP2
1000;SDS011;489;47.806;12.858;2023-11-21T00:00:51;3.63;;;1.80;;
1000;SDS011;489;47.806;12.858;2023-11-21T00:02:53;4.30;;;1.90;;
1000;SDS011;489;47.806;12.858;2023-11-21T00:04:54;3.60;;;1.60;;
1000;SDS011;489;47.806;12.858;2023-11-21T00:06:56;3.33;;;1.87;;
1000;SDS011;489;47.806;12.858;2023-11-21T00:08:57;4.07;;;1.53;;
1000;SDS011;489;47.806;12.858;2023-11-21T00:11:00;3.40;;;1.70;;
1000;SDS011;489;47.806;12.858;2023-11-21T00:13:01;2.30;;;1.40;;
1000;SDS011;489;47.806;12.858;2023-11-21T00:15:04;2.73;;;1.43;;
1000;SDS011;489;47.806;12.858;2023-11-21T00:17:10;4.93;;;1.70;;
1000;SDS011;489;47.806;12.858;2023-11-21T00:19:13;3.37;;;1.50;;
1000;SDS011;489;47.806;12.858;2023-11-21T00:21:14;3.97;;;1.93;;
1000;SDS011;489;47.806;12.858;2023-11-21T00:23:16;2.63;;;1.70;;
1000;SDS011;489;47.806;12.858;2023-11-21T00:25:18;2.23;;;1.30;;
1000;SDS011;489;47.806;12.858;2023-11-21T00:27:20;4.40;;;1.67;;
1000;SDS011;489;47.806;12.858;2023-11-21T00:29:22;1.00;;;0.90;;
1000;SDS011;489;47.806;12.858;2023-11-21T00:31:25;2.23;;;1.13;;
1000;SDS011;489;47.806;12.858;2023-11-21T00:33:28;1.73;;;0.80;;
1000;SDS011;489;47.806;12.858;2023-11-21T00:35:30;2.77;;;1.00;;
1000;SDS011;489;47.806;12.858;2023-11-21T00:37:32;2.77;;;1.00;;
1000;SDS011;489;47.806;12.858;2023-11-21T00:39:34;3.30;;;0.90;;
1000;SDS011;489;47.806;12.858;2023-11-21T00:41:36;1.70;;;0.90;;
1000;SDS011;489;47.806;12.858;2023-11-21T00:43:38;2.03;;;0.80;;
1000;SDS011;489;47.806;12.858;2023-11-21T00:45:40;2.50;;;0.77;;
1000;SDS011;489;47.806;12.858;2023-11-21T00:47:42;2.47;;;0.90;;
1000;SDS011;489;47.806;12.858;2023-11-21T00:49:44;2.37;;;1.07;;
1000;SDS011;489;47.806;12.858;2023-11-21T00:51:46;2.73;;;1.10;;
1000;SDS011;489;47.806;12.858;2023-11-21T00:53:48;1.47;;;0.90;;
1000;SDS011;489;47.806;12.858;2023-11-21T00:55:50;3.27;;;0.93;;
1000;SDS011;489;47.806;12.858;2023-11-21T00:57:52;2.37;;;0.97;;
1000;SDS011;489;47.806;12.858;2023-11-21T00:59:54;1.67;;;0.80;;
1000;SDS011;489;47.806;12.858;2023-11-21T01:01:56;4.87;;;1.10;;
1000;SDS011;489;47.806;12.858;2023-11-21T01:04:00;2.20;;;1.00;;
1000;SDS011;489;47.806;12.858;2023-11-21T01:06:04;3.53;;;1.20;;
1000;SDS011;489;47.806;12.858;2023-11-21T01:08:08;1.67;;;0.97;;
1000;SDS011;489;47.806;12.858;2023-11-21T01:10:11;1.67;;;0.90;;
1000;SDS011;489;47.806;12.858;2023-11-21T01:12:13;2.40;;;0.90;;
1000;SDS011;489;47.806;12.858;2023-11-21T01:14:15;2.20;;;1.03;;
1000;SDS011;489;47.806;12.858;2023-11-21T01:16:17;2.20;;;1.03;;
1000;SDS011;489;47.806;12.858;2023-11-21T01:18:20;2.77;;;1.40;;
1000;SDS011;489;47.806;12.858;2023-11-21T01:20:21;2.33;;;0.90;;
1000;SDS011;489;47.806;12.858;2023-11-21T01:22:25;3.00;;;1.33;;
1000;SDS011;489;47.806;12.858;2023-11-21T01:24:27;1.43;;;1.07;;
1000;SDS011;489;47.806;12.858;2023-11-21T01:26:29;2.47;;;1.30;;
1000;SDS011;489;47.806;12.858;2023-11-21T01:28:31;1.20;;;1.10;;
1000;SDS011;489;47.806;12.858;2023-11-21T01:30:33;1.93;;;0.60;;
1000;SDS011;489;47.806;12.858;2023-11-21T01:32:35;1.63;;;1.00;;
1000;SDS011;489;47.806;12.858;2023-11-21T01:34:37;3.43;;;0.80;;
1000;SDS011;489;47.806;12.858;2023-11-21T01:36:39;2.53;;;1.03;;
1000;SDS011;489;47.806;12.858;2023-11-21T01:38:43;2.93;;;1.20;;
1000;SDS011;489;47.806;12.858;2023-11-21T01:40:46;2.83;;;1.07;;
1000;SDS011;489;47.806;12.858;2023-11-21T01:42:48;7.43;;;0.97;;
1000;SDS011;489;47.806;12.858;2023-11-21T01:44:50;2.70;;;1.10;;
1000;SDS011;489;47.806;12.858;2023-11-21T01:46:51;3.63;;;1.23;;
1000;SDS011;489;47.806;12.858;2023-11-21T01:48:54;3.60;;;1.77;;
1000;SDS011;489;47.806;12.858;2023-11-21T01:50:56;2.20;;;0.97;;
1000;SDS011;489;47.806;12.858;2023-11-21T01:52:58;2.93;;;1.20;;
1000;SDS011;489;47.806;12.858;2023-11-21T01:55:02;1.53;;;1.00;;
1000;SDS011;489;47.806;12.858;2023-11-21T01:57:05;2.70;;;0.80;;
1000;SDS011;489;47.806;12.858;2023-11-21T01:59:07;3.60;;;1.10;;
1000;SDS011;489;47.806;12.858;2023-11-21T02:01:09;2.03;;;1.00;;
1000;SDS011;489;47.806;12.858;2023-11-21T02:03:11;2.77;;;0.90;;
1000;SDS011;489;47.806;12.858;2023-11-21T02:05:12;2.17;;;0.70;;
1000;SDS011;489;47.806;12.858;2023-11-21T02:07:15;1.40;;;0.70;;
1000;SDS011;489;47.806;12.858;2023-11-21T02:09:22;2.33;;;0.90;;
1000;SDS011;489;47.806;12.858;2023-11-21T02:11:27;1.80;;;0.80;;
1000;SDS011;489;47.806;12.858;2023-11-21T02:13:29;3.10;;;1.07;;
1000;SDS011;489;47.806;12.858;2023-11-21T02:15:32;2.60;;;1.03;;
1000;SDS011;489;47.806;12.858;2023-11-21T02:17:34;1.67;;;0.70;;
1000;SDS011;489;47.806;12.858;2023-11-21T02:19:35;4.37;;;0.97;;
1000;SDS011;489;47.806;12.858;2023-11-21T02:21:37;1.70;;;0.90;;
1000;SDS011;489;47.806;12.858;2023-11-21T02:23:42;2.10;;;0.80;;
1000;SDS011;489;47.806;12.858;2023-11-21T02:25:44;3.40;;;1.20;;
1000;SDS011;489;47.806;12.858;2023-11-21T02:27:47;1.53;;;0.80;;
1000;SDS011;489;47.806;12.858;2023-11-21T02:29:49;5.10;;;1.00;;
1000;SDS011;489;47.806;12.858;2023-11-21T02:31:51;2.40;;;0.80;;
1000;SDS011;489;47.806;12.858;2023-11-21T02:33:55;1.97;;;1.00;;
1000;SDS011;489;47.806;12.858;2023-11-21T02:35:57;1.73;;;0.80;;
1000;SDS011;489;47.806;12.858;2023-11-21T02:37:59;1.60;;;1.03;;
1000;SDS011;489;47.806;12.858;2023-11-21T02:40:03;2.57;;;1.30;;
1000;SDS011;489;47.806;12.858;2023-11-21T02:42:08;1.03;;;0.83;;
1000;SDS011;489;47.806;12.858;2023-11-21T02:44:10;1.97;;;1.00;;
1000;SDS011;489;47.806;12.858;2023-11-21T02:46:11;1.23;;;0.80;;
1000;SDS011;489;47.806;12.858;2023-11-21T02:48:13;1.90;;;1.00;;
1000;SDS011;489;47.806;12.858;2023-11-21T02:50:16;3.07;;;1.40;;
1000;SDS011;489;47.806;12.858;2023-11-21T02:52:19;1.27;;;0.87;;
1000;SDS011;489;47.806;12.858;2023-11-21T02:54:21;1.10;;;0.93;;
1000;SDS011;489;47.806;12.858;2023-11-21T02:56:24;4.33;;;1.50;;
1000;SDS011;489;47.806;12.858;2023-11-21T02:58:26;2.20;;;0.90;;
1000;SDS011;489;47.806;12.858;2023-11-21T03:00:30;1.00;;;0.90;;
1000;SDS011;489;47.806;12.858;2023-11-21T03:02:33;1.77;;;1.20;;
1000;SDS011;489;47.806;12.858;2023-11-21T03:04:39;2.20;;;0.93;;
1000;SDS011;489;47.806;12.858;2023-11-21T03:06:41;4.10;;;1.10;;
1000;SDS011;489;47.806;12.858;2023-11-21T03:08:43;4.70;;;1.00;;
1000;SDS011;489;47.806;12.858;2023-11-21T03:10:46;1.40;;;0.93;;
1000;SDS011;489;47.806;12.858;2023-11-21T03:12:50;2.03;;;0.97;;
1000;SDS011;489;47.806;12.858;2023-11-21T03:14:51;1.97;;;1.20;;
1000;SDS011;489;47.806;12.858;2023-11-21T03:16:55;1.60;;;0.80;;
1000;SDS011;489;47.806;12.858;2023-11-21T03:18:56;4.30;;;2.03;;
1000;SDS011;489;47.806;12.858;2023-11-21T03:20:58;2.17;;;1.50;;
1000;SDS011;489;47.806;12.858;2023-11-21T03:23:00;3.37;;;2.70;;
1000;SDS011;489;47.806;12.858;2023-11-21T03:25:02;3.20;;;2.13;;
1000;SDS011;489;47.806;12.858;2023-11-21T03:27:05;3.40;;;1.60;;
1000;SDS011;489;47.806;12.858;2023-11-21T03:29:08;4.67;;;3.30;;
1000;SDS011;489;47.806;12.858;2023-11-21T03:31:09;7.60;;;4.80;;
1000;SDS011;489;47.806;12.858;2023-11-21T03:33:11;4.47;;;2.87;;
1000;SDS011;489;47.806;12.858;2023-11-21T03:35:13;3.10;;;1.70;;
1000;SDS011;489;47.806;12.858;2023-11-21T03:37:15;4.73;;;1.73;;
1000;SDS011;489;47.806;12.858;2023-11-21T03:39:16;2.33;;;1.40;;
1000;SDS011;489;47.806;12.858;2023-11-21T03:41:18;3.20;;;1.20;;
1000;SDS011;489;47.806;12.858;2023-11-21T03:43:20;2.47;;;1.30;;
1000;SDS011;489;47.806;12.858;2023-11-21T03:45:23;3.53;;;1.50;;
1000;SDS011;489;47.806;12.858;2023-11-21T03:47:25;2.30;;;1.63;;
1000;SDS011;489;47.806;12.858;2023-11-21T03:49:26;2.13;;;1.63;;
1000;SDS011;489;47.806;12.858;2023-11-21T03:51:29;2.67;;;1.80;;
1000;SDS011;489;47.806;12.858;2023-11-21T03:53:31;4.00;;;3.60;;
1000;SDS011;489;47.806;12.858;2023-11-21T03:55:34;7.83;;;3.50;;
1000;SDS011;489;47.806;12.858;2023-11-21T03:57:37;3.90;;;3.10;;
1000;SDS011;489;47.806;12.858;2023-11-21T03:59:39;8.07;;;4.10;;
1000;SDS011;489;47.806;12.858;2023-11-21T04:01:43;4.87;;;3.00;;
1000;SDS011;489;47.806;12.858;2023-11-21T04:03:45;4.90;;;3.37;;
1000;SDS011;489;47.806;12.858;2023-11-21T04:05:46;8.77;;;6.10;;
1000;SDS011;489;47.806;12.858;2023-11-21T04:07:48;9.33;;;5.50;;
1000;SDS011;489;47.806;12.858;2023-11-21T04:09:51;6.70;;;4.70;;
1000;SDS011;489;47.806;12.858;2023-11-21T04:11:52;6.77;;;4.40;;
1000;SDS011;489;47.806;12.858;2023-11-21T04:13:54;6.60;;;3.97;;
1000;SDS011;489;47.806;12.858;2023-11-21T04:15:56;6.07;;;3.30;;
1000;SDS011;489;47.806;12.858;2023-11-21T04:17:59;4.57;;;2.67;;
1000;SDS011;489;47.806;12.858;2023-11-21T04:20:02;5.80;;;3.03;;
1000;SDS011;489;47.806;12.858;2023-11-21T04:22:08;5.20;;;3.47;;
1000;SDS011;489;47.806;12.858;2023-11-21T04:24:10;3.53;;;2.87;;
1000;SDS011;489;47.806;12.858;2023-11-21T04:26:12;3.30;;;2.17;;
1000;SDS011;489;47.806;12.858;2023-11-21T04:28:14;5.13;;;2.20;;
1000;SDS011;489;47.806;12.858;2023-11-21T04:30:16;2.60;;;1.70;;
1000;SDS011;489;47.806;12.858;2023-11-21T04:32:18;2.20;;;2.00;;
1000;SDS011;489;47.806;12.858;2023-11-21T04:34:20;4.70;;;3.00;;
1000;SDS011;489;47.806;12.858;2023-11-21T04:36:22;2.97;;;2.47;;
1000;SDS011;489;47.806;12.858;2023-11-21T04:38:24;5.40;;;4.43;;
1000;SDS011;489;47.806;12.858;2023-11-21T04:40:26;3.90;;;2.40;;
1000;SDS011;489;47.806;12.858;2023-11-21T04:42:28;4.50;;;2.50;;
1000;SDS011;489;47.806;12.858;2023-11-21T04:44:29;8.77;;;4.03;;
1000;SDS011;489;47.806;12.858;2023-11-21T04:46:31;5.27;;;3.30;;
1000;SDS011;489;47.806;12.858;2023-11-21T04:48:33;8.87;;;4.80;;
1000;SDS011;489;47.806;12.858;2023-11-21T04:50:36;5.50;;;3.10;;
1000;SDS011;489;47.806;12.858;2023-11-21T04:52:39;3.50;;;3.10;;
1000;SDS011;489;47.806;12.858;2023-11-21T04:54:40;6.23;;;2.80;;
1000;SDS011;489;47.806;12.858;2023-11-21T04:56:43;6.20;;;2.00;;
1000;SDS011;489;47.806;12.858;2023-11-21T04:58:45;5.90;;;2.30;;
1000;SDS011;489;47.806;12.858;2023-11-21T05:00:47;2.73;;;2.10;;
1000;SDS011;489;47.806;12.858;2023-11-21T05:02:50;4.73;;;2.40;;
1000;SDS011;489;47.806;12.858;2023-11-21T05:04:52;2.77;;;2.00;;
1000;SDS011;489;47.806;12.858;2023-11-21T05:06:55;3.20;;;2.30;;
1000;SDS011;489;47.806;12.858;2023-11-21T05:08:57;3.80;;;1.80;;
1000;SDS011;489;47.806;12.858;2023-11-21T05:10:59;4.70;;;3.53;;
1000;SDS011;489;47.806;12.858;2023-11-21T05:13:00;3.87;;;2.37;;
1000;SDS011;489;47.806;12.858;2023-11-21T05:15:03;4.63;;;1.90;;
1000;SDS011;489;47.806;12.858;2023-11-21T05:17:08;1.90;;;1.53;;
1000;SDS011;489;47.806;12.858;2023-11-21T05:19:09;2.10;;;1.60;;
1000;SDS011;489;47.806;12.858;2023-11-21T05:21:12;2.93;;;1.90;;
1000;SDS011;489;47.806;12.858;2023-11-21T05:23:15;2.47;;;1.63;;
1000;SDS011;489;47.806;12.858;2023-11-21T05:25:16;3.63;;;1.60;;
1000;SDS011;489;47.806;12.858;2023-11-21T05:27:19;1.53;;;1.13;;
1000;SDS011;489;47.806;12.858;2023-11-21T05:29:21;2.97;;;1.30;;
1000;SDS011;489;47.806;12.858;2023-11-21T05:31:23;3.23;;;1.33;;
1000;SDS011;489;47.806;12.858;2023-11-21T05:33:25;6.30;;;1.43;;
1000;SDS011;489;47.806;12.858;2023-11-21T05:35:27;4.27;;;1.80;;
1000;SDS011;489;47.806;12.858;2023-11-21T05:37:29;4.33;;;2.20;;
1000;SDS011;489;47.806;12.858;2023-11-21T05:39:32;2.33;;;1.40;;
1000;SDS011;489;47.806;12.858;2023-11-21T05:41:34;2.00;;;1.40;;
1000;SDS011;489;47.806;12.858;2023-11-21T05:43:36;1.50;;;1.40;;
1000;SDS011;489;47.806;12.858;2023-11-21T05:45:38;6.40;;;2.40;;
1000;SDS011;489;47.806;12.858;2023-11-21T05:47:41;1.93;;;1.80;;
1000;SDS011;489;47.806;12.858;2023-11-21T05:49:44;3.67;;;1.70;;
1000;SDS011;489;47.806;12.858;2023-11-21T05:51:50;5.23;;;1.50;;
1000;SDS011;489;47.806;12.858;2023-11-21T05:53:54;3.37;;;1.57;;
1000;SDS011;489;47.806;12.858;2023-11-21T05:55:57;3.80;;;2.00;;
1000;SDS011;489;47.806;12.858;2023-11-21T05:57:59;2.50;;;2.30;;
1000;SDS011;489;47.806;12.858;2023-11-21T06:00:02;5.10;;;2.43;;
1000;SDS011;489;47.806;12.858;2023-11-21T06:02:10;4.73;;;2.30;;
1000;SDS011;489;47.806;12.858;2023-11-21T06:04:12;3.03;;;1.90;;
1000;SDS011;489;47.806;12.858;2023-11-21T06:06:14;2.73;;;2.20;;
1000;SDS011;489;47.806;12.858;2023-11-21T06:08:16;3.63;;;2.17;;
1000;SDS011;489;47.806;12.858;2023-11-21T06:10:19;2.63;;;2.17;;
1000;SDS011;489;47.806;12.858;2023-11-21T06:12:22;3.80;;;2.40;;
1000;SDS011;489;47.806;12.858;2023-11-21T06:14:25;6.30;;;2.27;;
1000;SDS011;489;47.806;12.858;2023-11-21T06:16:27;3.03;;;2.00;;
1000;SDS011;489;47.806;12.858;2023-11-21T06:18:29;2.53;;;1.90;;
1000;SDS011;489;47.806;12.858;2023-11-21T06:20:31;3.33;;;1.67;;
1000;SDS011;489;47.806;12.858;2023-11-21T06:22:33;3.77;;;1.70;;
1000;SDS011;489;47.806;12.858;2023-11-21T06:24:35;3.00;;;2.33;;
1000;SDS011;489;47.806;12.858;2023-11-21T06:26:37;3.30;;;2.13;;
1000;SDS011;489;47.806;12.858;2023-11-21T06:28:40;5.37;;;2.47;;
1000;SDS011;489;47.806;12.858;2023-11-21T06:30:42;2.50;;;1.50;;
1000;SDS011;489;47.806;12.858;2023-11-21T06:32:44;2.60;;;1.80;;
1000;SDS011;489;47.806;12.858;2023-11-21T06:34:46;4.07;;;2.47;;
1000;SDS011;489;47.806;12.858;2023-11-21T06:36:48;5.33;;;2.87;;
1000;SDS011;489;47.806;12.858;2023-11-21T06:38:49;3.50;;;3.10;;
1000;SDS011;489;47.806;12.858;2023-11-21T06:40:51;4.00;;;2.47;;
1000;SDS011;489;47.806;12.858;2023-11-21T06:42:53;5.33;;;2.97;;
1000;SDS011;489;47.806;12.858;2023-11-21T06:45:18;2.93;;;2.63;;
1000;SDS011;489;47.806;12.858;2023-11-21T06:47:21;3.27;;;2.60;;
1000;SDS011;489;47.806;12.858;2023-11-21T06:49:25;4.30;;;2.93;;
1000;SDS011;489;47.806;12.858;2023-11-21T06:51:27;5.03;;;3.30;;
1000;SDS011;489;47.806;12.858;2023-11-21T06:53:29;4.43;;;3.10;;
1000;SDS011;489;47.806;12.858;2023-11-21T06:55:31;4.93;;;4.20;;
1000;SDS011;489;47.806;12.858;2023-11-21T06:57:32;3.37;;;3.00;;
1000;SDS011;489;47.806;12.858;2023-11-21T06:59:34;3.20;;;2.90;;
1000;SDS011;489;47.806;12.858;2023-11-21T07:01:38;3.70;;;2.93;;
1000;SDS011;489;47.806;12.858;2023-11-21T07:03:41;6.63;;;3.90;;
1000;SDS011;489;47.806;12.858;2023-11-21T07:05:43;8.20;;;3.73;;
1000;SDS011;489;47.806;12.858;2023-11-21T07:07:45;3.33;;;2.87;;
1000;SDS011;489;47.806;12.858;2023-11-21T07:09:48;3.80;;;3.30;;
1000;SDS011;489;47.806;12.858;2023-11-21T07:11:52;3.27;;;2.77;;
1000;SDS011;489;47.806;12.858;2023-11-21T07:13:54;3.13;;;2.53;;
1000;SDS011;489;47.806;12.858;2023-11-21T07:15:57;4.60;;;3.03;;
1000;SDS011;489;47.806;12.858;2023-11-21T07:18:00;4.60;;;3.50;;
1000;SDS011;489;47.806;12.858;2023-11-21T07:20:03;2.90;;;2.70;;
1000;SDS011;489;47.806;12.858;2023-11-21T07:22:06;4.50;;;3.20;;
1000;SDS011;489;47.806;12.858;2023-11-21T07:24:09;4.23;;;3.40;;
1000;SDS011;489;47.806;12.858;2023-11-21T07:26:11;3.50;;;3.20;;
1000;SDS011;489;47.806;12.858;2023-11-21T07:28:13;4.50;;;3.57;;
1000;SDS011;489;47.806;12.858;2023-11-21T07:30:15;4.67;;;3.97;;
1000;SDS011;489;47.806;12.858;2023-11-21T07:32:18;5.10;;;4.20;;
1000;SDS011;489;47.806;12.858;2023-11-21T07:34:21;5.80;;;4.63;;
1000;SDS011;489;47.806;12.858;2023-11-21T07:36:22;5.23;;;4.70;;
1000;SDS011;489;47.806;12.858;2023-11-21T07:38:24;5.37;;;4.23;;
1000;SDS011;489;47.806;12.858;2023-11-21T07:40:26;6.73;;;4.10;;
1000;SDS011;489;47.806;12.858;2023-11-21T07:42:29;5.27;;;3.90;;
1000;SDS011;489;47.806;12.858;2023-11-21T07:44:30;7.57;;;4.87;;
1000;SDS011;489;47.806;12.858;2023-11-21T07:46:33;8.23;;;4.63;;
1000;SDS011;489;47.806;12.858;2023-11-21T07:48:35;5.37;;;3.50;;
1000;SDS011;489;47.806;12.858;2023-11-21T07:50:38;4.43;;;2.90;;
1000;SDS011;489;47.806;12.858;2023-11-21T07:52:40;3.40;;;2.90;;
1000;SDS011;489;47.806;12.858;2023-11-21T07:54:41;6.60;;;3.60;;
1000;SDS011;489;47.806;12.858;2023-11-21T07:56:43;3.70;;;3.10;;
1000;SDS011;489;47.806;12.858;2023-11-21T07:58:45;4.10;;;3.47;;
1000;SDS011;489;47.806;12.858;2023-11-21T08:00:47;3.90;;;3.17;;
1000;SDS011;489;47.806;12.858;2023-11-21T08:02:50;5.10;;;3.30;;
1000;SDS011;489;47.806;12.858;2023-11-21T08:04:52;4.40;;;2.80;;
1000;SDS011;489;47.806;12.858;2023-11-21T08:06:54;5.90;;;4.10;;
1000;SDS011;489;47.806;12.858;2023-11-21T08:08:56;6.63;;;3.47;;
1000;SDS011;489;47.806;12.858;2023-11-21T08:10:58;5.77;;;3.40;;
1000;SDS011;489;47.806;12.858;2023-11-21T08:13:01;5.50;;;3.90;;
1000;SDS011;489;47.806;12.858;2023-11-21T08:15:04;3.97;;;3.57;;
1000;SDS011;489;47.806;12.858;2023-11-21T08:17:08;4.70;;;3.57;;
1000;SDS011;489;47.806;12.858;2023-11-21T08:19:10;5.10;;;3.87;;
1000;SDS011;489;47.806;12.858;2023-11-21T08:21:12;5.57;;;3.87;;
1000;SDS011;489;47.806;12.858;2023-11-21T08:23:15;3.77;;;3.30;;
1000;SDS011;489;47.806;12.858;2023-11-21T08:25:17;6.00;;;3.57;;
1000;SDS011;489;47.806;12.858;2023-11-21T08:27:20;4.97;;;3.77;;
1000;SDS011;489;47.806;12.858;2023-11-21T08:29:21;7.27;;;5.17;;
1000;SDS011;489;47.806;12.858;2023-11-21T08:31:23;6.63;;;5.47;;
1000;SDS011;489;47.806;12.858;2023-11-21T08:33:26;6.43;;;4.10;;
1000;SDS011;489;47.806;12.858;2023-11-21T08:35:28;4.43;;;2.93;;
1000;SDS011;489;47.806;12.858;2023-11-21T08:37:30;6.90;;;3.47;;
1000;SDS011;489;47.806;12.858;2023-11-21T08:39:34;5.80;;;2.73;;
1000;SDS011;489;47.806;12.858;2023-11-21T08:41:38;4.50;;;2.80;;
1000;SDS011;489;47.806;12.858;2023-11-21T08:43:40;4.10;;;3.20;;
1000;SDS011;489;47.806;12.858;2023-11-21T08:45:42;3.60;;;2.60;;
1000;SDS011;489;47.806;12.858;2023-11-21T08:47:44;3.70;;;3.23;;
1000;SDS011;489;47.806;12.858;2023-11-21T08:49:46;3.03;;;2.73;;
1000;SDS011;489;47.806;12.858;2023-11-21T08:51:48;4.53;;;2.30;;
1000;SDS011;489;47.806;12.858;2023-11-21T08:53:50;3.70;;;2.73;;
1000;SDS011;489;47.806;12.858;2023-11-21T08:55:53;2.80;;;2.40;;
1000;SDS011;489;47.806;12.858;2023-11-21T08:57:55;3.90;;;2.63;;
1000;SDS011;489;47.806;12.858;2023-11-21T08:59:59;6.07;;;3.70;;
1000;SDS011;489;47.806;12.858;2023-11-21T09:02:03;5.83;;;4.23;;
1000;SDS011;489;47.806;12.858;2023-11-21T09:04:06;5.57;;;3.57;;
1000;SDS011;489;47.806;12.858;2023-11-21T09:06:09;4.00;;;3.37;;
1000;SDS011;489;47.806;12.858;2023-11-21T09:08:11;5.17;;;3.47;;
1000;SDS011;489;47.806;12.858;2023-11-21T09:10:12;3.90;;;3.50;;
1000;SDS011;489;47.806;12.858;2023-11-21T09:12:16;5.70;;;3.77;;
1000;SDS011;489;47.806;12.858;2023-11-21T09:14:17;6.43;;;3.63;;
1000;SDS011;489;47.806;12.858;2023-11-21T09:16:19;3.53;;;3.07;;
1000;SDS011;489;47.806;12.858;2023-11-21T09:18:21;4.80;;;3.20;;
1000;SDS011;489;47.806;12.858;2023-11-21T09:20:23;4.50;;;2.83;;
1000;SDS011;489;47.806;12.858;2023-11-21T09:22:25;3.83;;;2.20;;
1000;SDS011;489;47.806;12.858;2023-11-21T09:24:27;2.60;;;2.00;;
1000;SDS011;489;47.806;12.858;2023-11-21T09:26:29;4.70;;;2.77;;
1000;SDS011;489;47.806;12.858;2023-11-21T09:28:32;3.80;;;2.87;;
1000;SDS011;489;47.806;12.858;2023-11-21T09:30:35;1.80;;;1.60;;
1000;SDS011;489;47.806;12.858;2023-11-21T09:32:37;2.13;;;1.50;;
1000;SDS011;489;47.806;12.858;2023-11-21T09:34:40;1.70;;;1.47;;
1000;SDS011;489;47.806;12.858;2023-11-21T09:36:44;2.27;;;1.03;;
1000;SDS011;489;47.806;12.858;2023-11-21T09:38:46;1.30;;;0.90;;
1000;SDS011;489;47.806;12.858;2023-11-21T09:40:50;1.53;;;0.70;;
1000;SDS011;489;47.806;12.858;2023-11-21T09:42:54;2.00;;;0.80;;
1000;SDS011;489;47.806;12.858;2023-11-21T09:45:01;1.83;;;1.10;;
1000;SDS011;489;47.806;12.858;2023-11-21T09:47:05;1.17;;;1.07;;
1000;SDS011;489;47.806;12.858;2023-11-21T09:49:10;1.80;;;1.70;;
1000;SDS011;489;47.806;12.858;2023-11-21T09:51:13;1.43;;;1.07;;
1000;SDS011;489;47.806;12.858;2023-11-21T09:53:17;1.77;;;1.27;;
1000;SDS011;489;47.806;12.858;2023-11-21T09:55:21;0.70;;;0.70;;
1000;SDS011;489;47.806;12.858;2023-11-21T09:57:22;0.80;;;0.57;;
1000;SDS011;489;47.806;12.858;2023-11-21T09:59:25;1.20;;;1.00;;
1000;SDS011;489;47.806;12.858;2023-11-21T10:01:33;1.73;;;0.90;;
1000;SDS011;489;47.806;12.858;2023-11-21T10:03:36;0.80;;;0.70;;
1000;SDS011;489;47.806;12.858;2023-11-21T10:05:39;0.97;;;0.63;;
1000;SDS011;489;47.806;12.858;2023-11-21T10:07:41;2.10;;;0.80;;
1000;SDS011;489;47.806;12.858;2023-11-21T10:09:44;0.70;;;0.63;;
1000;SDS011;489;47.806;12.858;2023-11-21T10:11:47;0.87;;;0.70;;
1000;SDS011;489;47.806;12.858;2023-11-21T10:13:52;2.00;;;0.90;;
1000;SDS011;489;47.806;12.858;2023-11-21T10:15:57;2.13;;;1.83;;
1000;SDS011;489;47.806;12.858;2023-11-21T10:18:01;1.77;;;1.13;;
1000;SDS011;489;47.806;12.858;2023-11-21T10:20:04;1.00;;;0.90;;
1000;SDS011;489;47.806;12.858;2023-11-21T10:22:11;2.17;;;1.30;;
1000;SDS011;489;47.806;12.858;2023-11-21T10:24:15;1.37;;;0.73;;
1000;SDS011;489;47.806;12.858;2023-11-21T10:26:18;1.67;;;1.03;;
1000;SDS011;489;47.806;12.858;2023-11-21T10:28:21;1.20;;;1.00;;
1000;SDS011;489;47.806;12.858;2023-11-21T10:30:24;2.10;;;1.40;;
1000;SDS011;489;47.806;12.858;2023-11-21T10:32:31;2.00;;;1.67;;
1000;SDS011;489;47.806;12.858;2023-11-21T10:34:34;2.73;;;1.60;;
1000;SDS011;489;47.806;12.858;2023-11-21T10:36:37;1.20;;;0.90;;
1000;SDS011;489;47.806;12.858;2023-11-21T10:38:42;1.60;;;1.23;;
1000;SDS011;489;47.806;12.858;2023-11-21T10:40:45;0.67;;;0.67;;
1000;SDS011;489;47.806;12.858;2023-11-21T10:42:48;0.93;;;0.90;;
1000;SDS011;489;47.806;12.858;2023-11-21T10:44:50;1.57;;;1.10;;
1000;SDS011;489;47.806;12.858;2023-11-21T10:46:52;1.63;;;0.70;;
1000;SDS011;489;47.806;12.858;2023-11-21T10:48:56;1.40;;;0.83;;
1000;SDS011;489;47.806;12.858;2023-11-21T10:50:59;0.90;;;0.80;;
1000;SDS011;489;47.806;12.858;2023-11-21T10:53:03;1.30;;;0.80;;
1000;SDS011;489;47.806;12.858;2023-11-21T10:55:15;2.50;;;0.80;;
1000;SDS011;489;47.806;12.858;2023-11-21T10:57:18;1.27;;;0.97;;
1000;SDS011;489;47.806;12.858;2023-11-21T10:59:22;1.73;;;0.70;;
1000;SDS011;489;47.806;12.858;2023-11-21T11:01:25;2.20;;;0.90;;
1000;SDS011;489;47.806;12.858;2023-11-21T11:03:29;1.10;;;0.83;;
1000;SDS011;489;47.806;12.858;2023-11-21T11:05:33;1.20;;;1.10;;
1000;SDS011;489;47.806;12.858;2023-11-21T11:07:37;1.87;;;1.30;;
1000;SDS011;489;47.806;12.858;2023-11-21T11:09:40;2.20;;;1.80;;
1000;SDS011;489;47.806;12.858;2023-11-21T11:11:42;1.67;;;1.40;;
1000;SDS011;489;47.806;12.858;2023-11-21T11:13:45;2.80;;;2.13;;
1000;SDS011;489;47.806;12.858;2023-11-21T11:15:47;3.20;;;1.40;;
1000;SDS011;489;47.806;12.858;2023-11-21T11:17:49;2.20;;;1.43;;
1000;SDS011;489;47.806;12.858;2023-11-21T11:19:51;2.73;;;2.40;;
1000;SDS011;489;47.806;12.858;2023-11-21T11:21:56;1.37;;;1.27;;
1000;SDS011;489;47.806;12.858;2023-11-21T11:24:10;1.80;;;1.60;;
1000;SDS011;489;47.806;12.858;2023-11-21T11:26:21;1.50;;;1.40;;
1000;SDS011;489;47.806;12.858;2023-11-21T11:28:29;1.60;;;1.50;;
1000;SDS011;489;47.806;12.858;2023-11-21T11:30:41;1.60;;;1.50;;
1000;SDS011;489;47.806;12.858;2023-11-21T11:32:50;2.20;;;1.60;;
1000;SDS011;489;47.806;12.858;2023-11-21T11:34:58;2.90;;;2.10;;
1000;SDS011;489;47.806;12.858;2023-11-21T11:37:05;1.60;;;1.50;;
1000;SDS011;489;47.806;12.858;2023-11-21T11:41:32;1.73;;;1.63;;
1000;SDS011;489;47.806;12.858;2023-11-21T11:43:35;1.53;;;1.00;;
1000;SDS011;489;47.806;12.858;2023-11-21T11:45:44;2.17;;;1.30;;
1000;SDS011;489;47.806;12.858;2023-11-21T11:47:56;1.87;;;1.60;;
1000;SDS011;489;47.806;12.858;2023-11-21T11:49:59;1.70;;;1.40;;
1000;SDS011;489;47.806;12.858;2023-11-21T11:54:36;1.10;;;1.00;;
1000;SDS011;489;47.806;12.858;2023-11-21T11:56:38;1.33;;;1.17;;
1000;SDS011;489;47.806;12.858;2023-11-21T11:58:40;1.00;;;0.90;;
1000;SDS011;489;47.806;12.858;2023-11-21T12:00:42;0.80;;;0.80;;
1000;SDS011;489;47.806;12.858;2023-11-21T12:02:45;0.80;;;0.70;;
1000;SDS011;489;47.806;12.858;2023-11-21T12:04:48;1.30;;;1.20;;
1000;SDS011;489;47.806;12.858;2023-11-21T12:06:50;1.30;;;1.10;;
1000;SDS011;489;47.806;12.858;2023-11-21T12:08:53;2.13;;;1.73;;
1000;SDS011;489;47.806;12.858;2023-11-21T12:10:57;1.70;;;1.07;;
1000;SDS011;489;47.806;12.858;2023-11-21T12:12:59;1.63;;;1.37;;
1000;SDS011;489;47.806;12.858;2023-11-21T12:15:02;2.90;;;1.77;;
1000;SDS011;489;47.806;12.858;2023-11-21T12:17:05;1.67;;;1.43;;
1000;SDS011;489;47.806;12.858;2023-11-21T12:19:07;1.90;;;1.10;;
1000;SDS011;489;47.806;12.858;2023-11-21T12:21:08;1.43;;;1.30;;
1000;SDS011;489;47.806;12.858;2023-11-21T12:23:10;2.63;;;2.10;;
1000;SDS011;489;47.806;12.858;2023-11-21T12:25:15;3.10;;;1.70;;
1000;SDS011;489;47.806;12.858;2023-11-21T12:27:20;1.33;;;1.23;;
1000;SDS011;489;47.806;12.858;2023-11-21T12:29:22;1.30;;;1.20;;
1000;SDS011;489;47.806;12.858;2023-11-21T12:31:24;1.80;;;1.20;;
1000;SDS011;489;47.806;12.858;2023-11-21T12:33:26;2.10;;;1.90;;
1000;SDS011;489;47.806;12.858;2023-11-21T12:35:30;2.87;;;2.00;;
1000;SDS011;489;47.806;12.858;2023-11-21T12:37:35;3.50;;;2.63;;
1000;SDS011;489;47.806;12.858;2023-11-21T12:39:36;3.30;;;2.77;;
1000;SDS011;489;47.806;12.858;2023-11-21T12:41:41;2.60;;;2.40;;
1000;SDS011;489;47.806;12.858;2023-11-21T12:43:45;4.20;;;2.20;;
1000;SDS011;489;47.806;12.858;2023-11-21T12:45:48;3.43;;;1.90;;
1000;SDS011;489;47.806;12.858;2023-11-21T12:47:50;2.40;;;2.20;;